sensor_id;sensor_type;location;lat;lon;timestamp;pressure;altitude;pressure_sealevel;temperature;humidity
59531;BME280;45349;48.692;8.186;2023-02-14T00:02:02;100502.97;;;-2.27;100.00
59531;BME280;45349;48.692;8.186;2023-02-14T00:04:28;100500.47;;;-2.31;100.00
59531;BME280;45349;48.692;8.186;2023-02-14T00:06:55;100499.63;;;-2.33;100.00
59531;BME280;45349;48.692;8.186;2023-02-14T00:09:22;100501.28;;;-2.29;100.00
59531;BME280;45349;48.692;8.186;2023-02-14T00:11:49;100501.19;;;-2.21;100.00
59531;BME280;45349;48.692;8.186;2023-02-14T00:14:17;100501.09;;;-2.15;100.00
59531;BME280;45349;48.692;8.186;2023-02-14T00:17:02;100500.19;;;-2.13;100.00
59531;BME280;45349;48.692;8.186;2023-02-14T00:19:28;100497.59;;;-2.11;100.00
59531;BME280;45349;48.692;8.186;2023-02-14T00:21:55;100504.34;;;-2.05;100.00
59531;BME280;45349;48.692;8.186;2023-02-14T00:24:24;100509.38;;;-2.01;100.00
59531;BME280;45349;48.692;8.186;2023-02-14T00:26:52;100499.88;;;-1.93;100.00
59531;BME280;45349;48.692;8.186;2023-02-14T00:29:21;100489.47;;;-1.83;100.00
59531;BME280;45349;48.692;8.186;2023-02-14T00:31:49;100495.31;;;-1.73;100.00
59531;BME280;45349;48.692;8.186;2023-02-14T00:34:16;100489.16;;;-1.63;100.00
59531;BME280;45349;48.692;8.186;2023-02-14T00:36:43;100490.84;;;-1.64;100.00
59531;BME280;45349;48.692;8.186;2023-02-14T00:39:12;100492.53;;;-1.63;100.00
59531;BME280;45349;48.692;8.186;2023-02-14T00:41:40;100487.63;;;-1.73;100.00
59531;BME280;45349;48.692;8.186;2023-02-14T00:44:08;100492.69;;;-1.72;100.00
59531;BME280;45349;48.692;8.186;2023-02-14T00:46:36;100496.94;;;-1.71;100.00
59531;BME280;45349;48.692;8.186;2023-02-14T00:49:03;100495.97;;;-1.64;100.00
59531;BME280;45349;48.692;8.186;2023-02-14T00:51:30;100487.47;;;-1.66;100.00
59531;BME280;45349;48.692;8.186;2023-02-14T00:53:56;100488.38;;;-1.68;100.00
59531;BME280;45349;48.692;8.186;2023-02-14T00:56:23;100488.38;;;-1.68;100.00
59531;BME280;45349;48.692;8.186;2023-02-14T00:58:50;100483.16;;;-1.64;100.00
59531;BME280;45349;48.692;8.186;2023-02-14T01:01:17;100484.91;;;-1.66;100.00
59531;BME280;45349;48.692;8.186;2023-02-14T01:03:45;100490.06;;;-1.67;100.00
59531;BME280;45349;48.692;8.186;2023-02-14T01:06:12;100495.31;;;-1.73;100.00
59531;BME280;45349;48.692;8.186;2023-02-14T01:08:38;100496.28;;;-1.82;100.00
59531;BME280;45349;48.692;8.186;2023-02-14T01:11:06;100494.53;;;-1.80;100.00
59531;BME280;45349;48.692;8.186;2023-02-14T01:13:33;100492.91;;;-1.84;100.00
59531;BME280;45349;48.692;8.186;2023-02-14T01:16:05;100492.84;;;-1.81;100.00
59531;BME280;45349;48.692;8.186;2023-02-14T01:18:32;100504.94;;;-1.89;100.00
59531;BME280;45349;48.692;8.186;2023-02-14T01:21:10;100498.88;;;-1.85;100.00
59531;BME280;45349;48.692;8.186;2023-02-14T01:23:37;100501.56;;;-1.91;100.00
59531;BME280;45349;48.692;8.186;2023-02-14T01:26:04;100495.69;;;-1.98;100.00
59531;BME280;45349;48.692;8.186;2023-02-14T01:28:31;100496.63;;;-2.02;100.00
59531;BME280;45349;48.692;8.186;2023-02-14T01:31:05;100497.50;;;-2.05;100.00
59531;BME280;45349;48.692;8.186;2023-02-14T01:33:31;100494.97;;;-2.08;100.00
59531;BME280;45349;48.692;8.186;2023-02-14T01:35:59;100495.97;;;-2.15;100.00
59531;BME280;45349;48.692;8.186;2023-02-14T01:38:27;100491.91;;;-2.30;100.00
59531;BME280;45349;48.692;8.186;2023-02-14T01:40:54;100486.97;;;-2.41;100.00
59531;BME280;45349;48.692;8.186;2023-02-14T01:43:20;100489.59;;;-2.46;100.00
59531;BME280;45349;48.692;8.186;2023-02-14T01:45:47;100496.53;;;-2.56;100.00
59531;BME280;45349;48.692;8.186;2023-02-14T01:48:14;100488.19;;;-2.67;100.00
59531;BME280;45349;48.692;8.186;2023-02-14T01:50:43;100484.88;;;-2.75;100.00
59531;BME280;45349;48.692;8.186;2023-02-14T01:53:12;100482.28;;;-2.72;100.00
59531;BME280;45349;48.692;8.186;2023-02-14T01:55:46;100494.19;;;-2.71;100.00
59531;BME280;45349;48.692;8.186;2023-02-14T01:58:17;100488.22;;;-2.69;100.00
59531;BME280;45349;48.692;8.186;2023-02-14T02:00:47;100488.22;;;-2.69;100.00
59531;BME280;45349;48.692;8.186;2023-02-14T02:03:26;100489.03;;;-2.68;100.00
59531;BME280;45349;48.692;8.186;2023-02-14T02:05:56;100482.06;;;-2.57;100.00
59531;BME280;45349;48.692;8.186;2023-02-14T02:08:24;100487.19;;;-2.58;100.00
59531;BME280;45349;48.692;8.186;2023-02-14T02:10:52;100480.47;;;-2.64;100.00
59531;BME280;45349;48.692;8.186;2023-02-14T02:13:20;100484.63;;;-2.57;100.00
59531;BME280;45349;48.692;8.186;2023-02-14T02:15:56;100482.13;;;-2.60;100.00
59531;BME280;45349;48.692;8.186;2023-02-14T02:18:33;100484.72;;;-2.63;100.00
59531;BME280;45349;48.692;8.186;2023-02-14T02:21:40;100486.38;;;-2.59;100.00
59531;BME280;45349;48.692;8.186;2023-02-14T02:24:23;100480.44;;;-2.61;100.00
59531;BME280;45349;48.692;8.186;2023-02-14T02:27:10;100474.44;;;-2.61;100.00
59531;BME280;45349;48.692;8.186;2023-02-14T02:30:17;100474.44;;;-2.61;100.00
59531;BME280;45349;48.692;8.186;2023-02-14T02:36:28;100456.88;;;-2.83;100.00
59531;BME280;45349;48.692;8.186;2023-02-14T02:39:07;100456.13;;;-2.93;100.00
59531;BME280;45349;48.692;8.186;2023-02-14T02:41:45;100456.25;;;-3.02;100.00
59531;BME280;45349;48.692;8.186;2023-02-14T02:44:16;100460.63;;;-3.14;100.00
59531;BME280;45349;48.692;8.186;2023-02-14T02:46:51;100454.69;;;-3.14;100.00
59531;BME280;45349;48.692;8.186;2023-02-14T02:49:35;100454.81;;;-3.23;100.00
59531;BME280;45349;48.692;8.186;2023-02-14T02:52:29;100454.03;;;-3.30;100.00
59531;BME280;45349;48.692;8.186;2023-02-14T02:55:23;100452.38;;;-3.34;100.00
59531;BME280;45349;48.692;8.186;2023-02-14T02:57:52;100449.88;;;-3.39;100.00
59531;BME280;45349;48.692;8.186;2023-02-14T03:00:20;100447.31;;;-3.39;100.00
59531;BME280;45349;48.692;8.186;2023-02-14T03:02:51;100446.50;;;-3.41;100.00
59531;BME280;45349;48.692;8.186;2023-02-14T03:05:36;100455.06;;;-3.47;100.00
59531;BME280;45349;48.692;8.186;2023-02-14T03:08:04;100461.78;;;-3.36;100.00
59531;BME280;45349;48.692;8.186;2023-02-14T03:10:34;100456.59;;;-3.32;100.00
59531;BME280;45349;48.692;8.186;2023-02-14T03:13:12;100454.00;;;-3.27;100.00
59531;BME280;45349;48.692;8.186;2023-02-14T03:15:54;100462.44;;;-3.20;100.00
59531;BME280;45349;48.692;8.186;2023-02-14T03:18:42;100468.31;;;-3.12;100.00
59531;BME280;45349;48.692;8.186;2023-02-14T03:21:30;100458.94;;;-3.15;100.00
59531;BME280;45349;48.692;8.186;2023-02-14T03:24:08;100463.16;;;-3.11;100.00
59531;BME280;45349;48.692;8.186;2023-02-14T03:26:41;100468.19;;;-3.04;100.00
59531;BME280;45349;48.692;8.186;2023-02-14T03:29:15;100470.59;;;-2.92;100.00
59531;BME280;45349;48.692;8.186;2023-02-14T03:31:54;100462.03;;;-2.88;100.00
59531;BME280;45349;48.692;8.186;2023-02-14T03:34:31;100466.16;;;-2.77;100.00
59531;BME280;45349;48.692;8.186;2023-02-14T03:37:02;100476.25;;;-2.68;100.00
59531;BME280;45349;48.692;8.186;2023-02-14T03:39:37;100471.03;;;-2.59;100.00
59531;BME280;45349;48.692;8.186;2023-02-14T03:42:12;100475.19;;;-2.52;100.00
59531;BME280;45349;48.692;8.186;2023-02-14T03:44:41;100475.09;;;-2.45;100.00
59531;BME280;45349;48.692;8.186;2023-02-14T03:47:12;100476.75;;;-2.41;100.00
59531;BME280;45349;48.692;8.186;2023-02-14T03:49:44;100475.75;;;-2.32;100.00
59531;BME280;45349;48.692;8.186;2023-02-14T03:52:13;100475.75;;;-2.31;100.00
59531;BME280;45349;48.692;8.186;2023-02-14T03:54:43;100474.78;;;-2.25;100.00
59531;BME280;45349;48.692;8.186;2023-02-14T03:57:14;100473.00;;;-2.18;100.00
59531;BME280;45349;48.692;8.186;2023-02-14T03:59:43;100466.06;;;-2.12;100.00
59531;BME280;45349;48.692;8.186;2023-02-14T04:02:12;100473.69;;;-2.10;100.00
59531;BME280;45349;48.692;8.186;2023-02-14T04:04:43;100475.38;;;-2.08;100.00
59531;BME280;45349;48.692;8.186;2023-02-14T04:07:12;100469.38;;;-2.06;100.00
59531;BME280;45349;48.692;8.186;2023-02-14T04:09:39;100464.28;;;-2.06;100.00
59531;BME280;45349;48.692;8.186;2023-02-14T04:12:07;100464.31;;;-2.11;100.00
59531;BME280;45349;48.692;8.186;2023-02-14T04:14:35;100469.53;;;-2.14;100.00
59531;BME280;45349;48.692;8.186;2023-02-14T04:17:02;100474.72;;;-2.20;100.00
59531;BME280;45349;48.692;8.186;2023-02-14T04:19:46;100475.59;;;-2.23;100.00
59531;BME280;45349;48.692;8.186;2023-02-14T04:22:13;100473.06;;;-2.23;100.00
59531;BME280;45349;48.692;8.186;2023-02-14T04:24:40;100475.66;;;-2.26;100.00
59531;BME280;45349;48.692;8.186;2023-02-14T04:27:08;100475.75;;;-2.31;100.00
59531;BME280;45349;48.692;8.186;2023-02-14T04:29:39;100467.28;;;-2.36;100.00
59531;BME280;45349;48.692;8.186;2023-02-14T04:32:08;100469.03;;;-2.38;100.00
59531;BME280;45349;48.692;8.186;2023-02-14T04:34:36;100472.44;;;-2.39;100.00
59531;BME280;45349;48.692;8.186;2023-02-14T04:37:04;100464.91;;;-2.50;100.00
59531;BME280;45349;48.692;8.186;2023-02-14T04:39:30;100461.53;;;-2.52;100.00
59531;BME280;45349;48.692;8.186;2023-02-14T04:41:57;100457.28;;;-2.53;100.00
59531;BME280;45349;48.692;8.186;2023-02-14T04:44:25;100461.63;;;-2.57;100.00
59531;BME280;45349;48.692;8.186;2023-02-14T04:46:52;100462.44;;;-2.55;100.00
59531;BME280;45349;48.692;8.186;2023-02-14T04:49:18;100464.13;;;-2.55;100.00
59531;BME280;45349;48.692;8.186;2023-02-14T04:51:45;100462.53;;;-2.61;100.00
59531;BME280;45349;48.692;8.186;2023-02-14T04:54:12;100454.94;;;-2.65;100.00
59531;BME280;45349;48.692;8.186;2023-02-14T04:56:39;100461.88;;;-2.74;100.00
59531;BME280;45349;48.692;8.186;2023-02-14T04:59:05;100455.88;;;-2.74;100.00
59531;BME280;45349;48.692;8.186;2023-02-14T05:01:33;100456.72;;;-2.72;100.00
59531;BME280;45349;48.692;8.186;2023-02-14T05:04:00;100460.91;;;-2.67;100.00
59531;BME280;45349;48.692;8.186;2023-02-14T05:06:27;100455.81;;;-2.67;100.00
59531;BME280;45349;48.692;8.186;2023-02-14T05:08:53;100457.50;;;-2.67;100.00
59531;BME280;45349;48.692;8.186;2023-02-14T05:11:22;100460.00;;;-2.64;100.00
59531;BME280;45349;48.692;8.186;2023-02-14T05:13:49;100455.75;;;-2.65;100.00
59531;BME280;45349;48.692;8.186;2023-02-14T05:16:15;100461.75;;;-2.66;100.00
59531;BME280;45349;48.692;8.186;2023-02-14T05:18:43;100463.47;;;-2.67;100.00
59531;BME280;45349;48.692;8.186;2023-02-14T05:21:10;100466.81;;;-2.64;100.00
59531;BME280;45349;48.692;8.186;2023-02-14T05:23:37;100461.63;;;-2.57;100.00
59531;BME280;45349;48.692;8.186;2023-02-14T05:26:04;100464.00;;;-2.46;100.00
59531;BME280;45349;48.692;8.186;2023-02-14T05:28:31;100458.06;;;-2.46;100.00
59531;BME280;45349;48.692;8.186;2023-02-14T05:30:58;100459.72;;;-2.42;100.00
59531;BME280;45349;48.692;8.186;2023-02-14T05:33:25;100456.19;;;-2.37;100.00
59531;BME280;45349;48.692;8.186;2023-02-14T05:35:53;100456.19;;;-2.37;100.00
59531;BME280;45349;48.692;8.186;2023-02-14T05:38:19;100468.94;;;-2.32;100.00
59531;BME280;45349;48.692;8.186;2023-02-14T05:40:46;100457.78;;;-2.28;100.00
59531;BME280;45349;48.692;8.186;2023-02-14T05:43:12;100462.91;;;-2.28;100.00
59531;BME280;45349;48.692;8.186;2023-02-14T05:45:39;100465.50;;;-2.31;100.00
59531;BME280;45349;48.692;8.186;2023-02-14T05:48:06;100469.66;;;-2.24;100.00
59531;BME280;45349;48.692;8.186;2023-02-14T05:50:32;100471.41;;;-2.27;100.00
59531;BME280;45349;48.692;8.186;2023-02-14T05:53:00;100479.09;;;-2.27;100.00
59531;BME280;45349;48.692;8.186;2023-02-14T05:55:27;100482.47;;;-2.25;100.00
59531;BME280;45349;48.692;8.186;2023-02-14T05:57:54;100479.91;;;-2.25;100.00
59531;BME280;45349;48.692;8.186;2023-02-14T06:00:21;100488.41;;;-2.23;100.00
59531;BME280;45349;48.692;8.186;2023-02-14T06:02:49;100488.41;;;-2.21;100.00
59531;BME280;45349;48.692;8.186;2023-02-14T06:05:15;100486.75;;;-2.26;100.00
59531;BME280;45349;48.692;8.186;2023-02-14T06:07:42;100494.47;;;-2.29;100.00
59531;BME280;45349;48.692;8.186;2023-02-14T06:10:16;100494.56;;;-2.37;100.00
59531;BME280;45349;48.692;8.186;2023-02-14T06:12:43;100490.44;;;-2.45;100.00
59531;BME280;45349;48.692;8.186;2023-02-14T06:15:10;100491.31;;;-2.46;100.00
59531;BME280;45349;48.692;8.186;2023-02-14T06:17:36;100487.94;;;-2.48;100.00
59531;BME280;45349;48.692;8.186;2023-02-14T06:20:04;100493.88;;;-2.46;100.00
59531;BME280;45349;48.692;8.186;2023-02-14T06:22:31;100487.03;;;-2.46;100.00
59531;BME280;45349;48.692;8.186;2023-02-14T06:24:58;100482.72;;;-2.42;100.00
59531;BME280;45349;48.692;8.186;2023-02-14T06:27:27;100486.16;;;-2.43;100.00
59531;BME280;45349;48.692;8.186;2023-02-14T06:29:54;100490.50;;;-2.50;100.00
59531;BME280;45349;48.692;8.186;2023-02-14T06:32:20;100486.28;;;-2.54;100.00
59531;BME280;45349;48.692;8.186;2023-02-14T06:34:47;100482.13;;;-2.60;100.00
59531;BME280;45349;48.692;8.186;2023-02-14T06:37:14;100486.47;;;-2.68;100.00
59531;BME280;45349;48.692;8.186;2023-02-14T06:39:40;100497.63;;;-2.72;100.00
59531;BME280;45349;48.692;8.186;2023-02-14T06:42:07;100496.88;;;-2.79;100.00
59531;BME280;45349;48.692;8.186;2023-02-14T06:44:35;100491.75;;;-2.79;100.00
59531;BME280;45349;48.692;8.186;2023-02-14T06:47:02;100496.00;;;-2.78;100.00
59531;BME280;45349;48.692;8.186;2023-02-14T06:49:28;100490.09;;;-2.83;100.00
59531;BME280;45349;48.692;8.186;2023-02-14T06:51:55;100497.72;;;-2.82;100.00
59531;BME280;45349;48.692;8.186;2023-02-14T06:54:21;100498.59;;;-2.83;100.00
59531;BME280;45349;48.692;8.186;2023-02-14T06:56:48;100504.50;;;-2.76;100.00
59531;BME280;45349;48.692;8.186;2023-02-14T06:59:15;100508.66;;;-2.70;100.00
59531;BME280;45349;48.692;8.186;2023-02-14T07:01:43;100506.94;;;-2.68;100.00
59531;BME280;45349;48.692;8.186;2023-02-14T07:04:09;100510.25;;;-2.61;100.00
59531;BME280;45349;48.692;8.186;2023-02-14T07:06:36;100505.88;;;-2.52;100.00
59531;BME280;45349;48.692;8.186;2023-02-14T07:09:03;100507.47;;;-2.44;100.00
59531;BME280;45349;48.692;8.186;2023-02-14T07:11:32;100505.69;;;-2.39;100.00
59531;BME280;45349;48.692;8.186;2023-02-14T07:13:59;100503.19;;;-2.42;100.00
59531;BME280;45349;48.692;8.186;2023-02-14T07:16:25;100503.09;;;-2.36;100.00
59531;BME280;45349;48.692;8.186;2023-02-14T07:18:53;100502.16;;;-2.30;100.00
59531;BME280;45349;48.692;8.186;2023-02-14T07:21:20;100514.84;;;-2.23;100.00
59531;BME280;45349;48.692;8.186;2023-02-14T07:23:46;100515.81;;;-2.31;100.00
59531;BME280;45349;48.692;8.186;2023-02-14T07:26:14;100510.78;;;-2.36;100.00
59531;BME280;45349;48.692;8.186;2023-02-14T07:28:42;100510.78;;;-2.38;100.00
59531;BME280;45349;48.692;8.186;2023-02-14T07:31:09;100509.00;;;-2.31;100.00
59531;BME280;45349;48.692;8.186;2023-02-14T07:33:36;100515.84;;;-2.33;100.00
59531;BME280;45349;48.692;8.186;2023-02-14T07:36:05;100511.56;;;-2.31;100.00
59531;BME280;45349;48.692;8.186;2023-02-14T07:38:32;100518.41;;;-2.34;100.00
59531;BME280;45349;48.692;8.186;2023-02-14T07:40:59;100513.28;;;-2.34;100.00
59531;BME280;45349;48.692;8.186;2023-02-14T07:43:26;100510.66;;;-2.27;100.00
59531;BME280;45349;48.692;8.186;2023-02-14T07:45:52;100508.00;;;-2.20;100.00
59531;BME280;45349;48.692;8.186;2023-02-14T07:48:19;100508.91;;;-2.25;100.00
59531;BME280;45349;48.692;8.186;2023-02-14T07:50:46;100505.56;;;-2.30;100.00
59531;BME280;45349;48.692;8.186;2023-02-14T07:53:14;100514.94;;;-2.30;100.00
59531;BME280;45349;48.692;8.186;2023-02-14T07:55:41;100510.56;;;-2.20;100.00
59531;BME280;45349;48.692;8.186;2023-02-14T07:58:07;100514.75;;;-2.18;100.00
59531;BME280;45349;48.692;8.186;2023-02-14T08:00:34;100508.59;;;-2.06;100.00
59531;BME280;45349;48.692;8.186;2023-02-14T08:03:01;100510.06;;;-1.89;100.00
59531;BME280;45349;48.692;8.186;2023-02-14T08:05:27;100511.63;;;-1.81;100.00
59531;BME280;45349;48.692;8.186;2023-02-14T08:07:54;100508.19;;;-1.80;100.00
59531;BME280;45349;48.692;8.186;2023-02-14T08:10:22;100500.47;;;-1.76;100.00
59531;BME280;45349;48.692;8.186;2023-02-14T08:12:48;100497.09;;;-1.80;100.00
59531;BME280;45349;48.692;8.186;2023-02-14T08:15:24;100508.25;;;-1.84;100.00
59531;BME280;45349;48.692;8.186;2023-02-14T08:18:08;100505.59;;;-1.78;100.00
59531;BME280;45349;48.692;8.186;2023-02-14T08:20:35;100512.91;;;-1.56;100.00
59531;BME280;45349;48.692;8.186;2023-02-14T08:23:02;100508.63;;;-1.56;100.00
59531;BME280;45349;48.692;8.186;2023-02-14T08:25:30;100507.81;;;-1.56;100.00
59531;BME280;45349;48.692;8.186;2023-02-14T08:27:57;100506.88;;;-1.52;100.00
59531;BME280;45349;48.692;8.186;2023-02-14T08:30:25;100513.63;;;-1.48;100.00
59531;BME280;45349;48.692;8.186;2023-02-14T08:32:52;100511.56;;;-1.27;100.00
59531;BME280;45349;48.692;8.186;2023-02-14T08:35:22;100517.31;;;-1.16;100.00
59531;BME280;45349;48.692;8.186;2023-02-14T08:37:49;100518.69;;;-0.99;100.00
59531;BME280;45349;48.692;8.186;2023-02-14T08:40:15;100516.94;;;-0.97;100.00
59531;BME280;45349;48.692;8.186;2023-02-14T08:42:43;100509.81;;;-0.83;100.00
59531;BME280;45349;48.692;8.186;2023-02-14T08:45:10;100512.19;;;-0.73;100.00
59531;BME280;45349;48.692;8.186;2023-02-14T08:47:37;100515.31;;;-0.59;100.00
59531;BME280;45349;48.692;8.186;2023-02-14T08:50:06;100508.28;;;-0.51;100.00
59531;BME280;45349;48.692;8.186;2023-02-14T08:52:33;100508.69;;;-0.30;100.00
59531;BME280;45349;48.692;8.186;2023-02-14T08:55:00;100513.88;;;-0.71;100.00
59531;BME280;45349;48.692;8.186;2023-02-14T08:57:27;100505.25;;;-0.68;100.00
59531;BME280;45349;48.692;8.186;2023-02-14T08:59:55;100507.50;;;-0.53;100.00
59531;BME280;45349;48.692;8.186;2023-02-14T09:02:21;100505.31;;;-0.32;100.00
59531;BME280;45349;48.692;8.186;2023-02-14T09:04:48;100507.75;;;-0.26;100.00
59531;BME280;45349;48.692;8.186;2023-02-14T09:07:15;100511.88;;;-0.19;100.00
59531;BME280;45349;48.692;8.186;2023-02-14T09:09:41;100512.41;;;-0.06;100.00
59531;BME280;45349;48.692;8.186;2023-02-14T09:12:09;100517.03;;;0.16;100.00
59531;BME280;45349;48.692;8.186;2023-02-14T09:14:36;100507.53;;;0.20;100.00
59531;BME280;45349;48.692;8.186;2023-02-14T09:17:06;100515.03;;;-0.07;100.00
59531;BME280;45349;48.692;8.186;2023-02-14T09:19:34;100507.97;;;0.01;100.00
59531;BME280;45349;48.692;8.186;2023-02-14T09:22:01;100499.88;;;0.17;100.00
59531;BME280;45349;48.692;8.186;2023-02-14T09:24:28;100500.13;;;0.42;100.00
59531;BME280;45349;48.692;8.186;2023-02-14T09:26:58;100501.31;;;0.62;100.00
59531;BME280;45349;48.692;8.186;2023-02-14T09:29:26;100501.03;;;0.72;100.00
59531;BME280;45349;48.692;8.186;2023-02-14T09:31:53;100493.09;;;0.80;100.00
59531;BME280;45349;48.692;8.186;2023-02-14T09:34:21;100492.69;;;0.96;100.00
59531;BME280;45349;48.692;8.186;2023-02-14T09:37:05;100499.81;;;1.16;100.00
59531;BME280;45349;48.692;8.186;2023-02-14T09:39:49;100495.28;;;1.24;100.00
59531;BME280;45349;48.692;8.186;2023-02-14T09:42:36;100497.13;;;1.21;100.00
59531;BME280;45349;48.692;8.186;2023-02-14T09:45:07;100499.81;;;1.16;100.00
59531;BME280;45349;48.692;8.186;2023-02-14T09:47:39;100500.94;;;1.07;100.00
59531;BME280;45349;48.692;8.186;2023-02-14T09:50:16;100497.63;;;1.03;100.00
59531;BME280;45349;48.692;8.186;2023-02-14T09:52:46;100500.84;;;1.10;100.00
59531;BME280;45349;48.692;8.186;2023-02-14T09:55:15;100488.38;;;1.26;100.00
59531;BME280;45349;48.692;8.186;2023-02-14T09:57:55;100492.06;;;1.17;100.00
59531;BME280;45349;48.692;8.186;2023-02-14T10:00:32;100499.03;;;1.14;100.00
59531;BME280;45349;48.692;8.186;2023-02-14T10:03:14;100491.06;;;1.52;100.00
59531;BME280;45349;48.692;8.186;2023-02-14T10:05:53;100491.28;;;1.72;100.00
59531;BME280;45349;48.692;8.186;2023-02-14T10:08:34;100493.13;;;1.96;100.00
59531;BME280;45349;48.692;8.186;2023-02-14T10:11:08;100492.09;;;2.01;100.00
59531;BME280;45349;48.692;8.186;2023-02-14T10:13:39;100487.84;;;2.26;100.00
59531;BME280;45349;48.692;8.186;2023-02-14T10:16:13;100488.09;;;2.45;100.00
59531;BME280;45349;48.692;8.186;2023-02-14T10:18:45;100487.41;;;2.40;100.00
59531;BME280;45349;48.692;8.186;2023-02-14T10:21:20;100489.50;;;2.54;100.00
59531;BME280;45349;48.692;8.186;2023-02-14T10:23:50;100489.69;;;2.47;100.00
59531;BME280;45349;48.692;8.186;2023-02-14T10:26:23;100483.13;;;2.64;99.53
59531;BME280;45349;48.692;8.186;2023-02-14T10:28:52;100490.94;;;2.62;98.53
59531;BME280;45349;48.692;8.186;2023-02-14T10:31:22;100490.88;;;2.39;97.87
59531;BME280;45349;48.692;8.186;2023-02-14T10:33:52;100485.84;;;2.34;99.23
59531;BME280;45349;48.692;8.186;2023-02-14T10:36:31;100482.16;;;2.43;100.00
59531;BME280;45349;48.692;8.186;2023-02-14T10:39:10;100482.72;;;2.51;99.98
59531;BME280;45349;48.692;8.186;2023-02-14T10:41:46;100476.41;;;2.34;99.56
59531;BME280;45349;48.692;8.186;2023-02-14T10:44:28;100479.06;;;2.57;98.68
59531;BME280;45349;48.692;8.186;2023-02-14T10:47:01;100470.47;;;2.32;98.19
59531;BME280;45349;48.692;8.186;2023-02-14T10:49:37;100471.72;;;2.46;100.00
59531;BME280;45349;48.692;8.186;2023-02-14T10:52:14;100470.50;;;2.56;99.13
59531;BME280;45349;48.692;8.186;2023-02-14T10:54:45;100462.97;;;2.25;97.48
59531;BME280;45349;48.692;8.186;2023-02-14T10:57:20;100464.41;;;2.08;99.08
59531;BME280;45349;48.692;8.186;2023-02-14T10:59:52;100463.72;;;2.28;100.00
59531;BME280;45349;48.692;8.186;2023-02-14T11:02:22;100461.56;;;2.41;100.00
59531;BME280;45349;48.692;8.186;2023-02-14T11:04:50;100453.81;;;2.41;99.84
59531;BME280;45349;48.692;8.186;2023-02-14T11:07:20;100449.81;;;2.58;99.13
59531;BME280;45349;48.692;8.186;2023-02-14T11:09:47;100452.69;;;2.50;100.00
59531;BME280;45349;48.692;8.186;2023-02-14T11:12:33;100446.13;;;2.65;99.21
59531;BME280;45349;48.692;8.186;2023-02-14T11:15:21;100441.94;;;2.62;98.24
59531;BME280;45349;48.692;8.186;2023-02-14T11:18:07;100440.53;;;2.77;100.00
59531;BME280;45349;48.692;8.186;2023-02-14T11:20:36;100445.03;;;2.96;100.00
59531;BME280;45349;48.692;8.186;2023-02-14T11:23:18;100444.34;;;2.91;97.89
59531;BME280;45349;48.692;8.186;2023-02-14T11:25:50;100428.16;;;2.63;97.80
59531;BME280;45349;48.692;8.186;2023-02-14T11:28:18;100427.69;;;2.76;99.69
59531;BME280;45349;48.692;8.186;2023-02-14T11:30:47;100431.56;;;2.88;98.96
59531;BME280;45349;48.692;8.186;2023-02-14T11:33:24;100410.81;;;3.13;100.00
59531;BME280;45349;48.692;8.186;2023-02-14T11:35:55;100410.28;;;3.27;100.00
59531;BME280;45349;48.692;8.186;2023-02-14T11:38:27;100410.41;;;3.46;99.02
59531;BME280;45349;48.692;8.186;2023-02-14T11:40:57;100414.88;;;3.63;96.86
59531;BME280;45349;48.692;8.186;2023-02-14T11:43:30;100410.06;;;3.76;98.24
59531;BME280;45349;48.692;8.186;2023-02-14T11:46:11;100408.94;;;3.61;93.71
59531;BME280;45349;48.692;8.186;2023-02-14T11:48:53;100406.41;;;3.39;94.98
59531;BME280;45349;48.692;8.186;2023-02-14T11:51:25;100406.69;;;3.31;96.60
59531;BME280;45349;48.692;8.186;2023-02-14T11:53:56;100412.47;;;3.38;96.74
59531;BME280;45349;48.692;8.186;2023-02-14T11:56:45;100407.78;;;3.25;96.71
59531;BME280;45349;48.692;8.186;2023-02-14T11:59:23;100411.50;;;3.18;96.84
59531;BME280;45349;48.692;8.186;2023-02-14T12:01:50;100405.63;;;3.15;98.54
59531;BME280;45349;48.692;8.186;2023-02-14T12:04:19;100398.50;;;3.20;97.35
59531;BME280;45349;48.692;8.186;2023-02-14T12:06:47;100401.41;;;3.12;99.77
59531;BME280;45349;48.692;8.186;2023-02-14T12:09:25;100397.38;;;3.27;100.00
59531;BME280;45349;48.692;8.186;2023-02-14T12:11:55;100397.09;;;3.13;96.59
59531;BME280;45349;48.692;8.186;2023-02-14T12:14:23;100382.31;;;2.94;98.44
59531;BME280;45349;48.692;8.186;2023-02-14T12:16:55;100384.63;;;2.78;99.93
59531;BME280;45349;48.692;8.186;2023-02-14T12:19:31;100384.84;;;2.72;99.94
59531;BME280;45349;48.692;8.186;2023-02-14T12:22:02;100384.81;;;2.73;100.00
59531;BME280;45349;48.692;8.186;2023-02-14T12:24:32;100376.47;;;2.43;100.00
59531;BME280;45349;48.692;8.186;2023-02-14T12:27:09;100370.34;;;2.45;100.00
59531;BME280;45349;48.692;8.186;2023-02-14T12:29:45;100374.72;;;2.43;100.00
59531;BME280;45349;48.692;8.186;2023-02-14T12:32:19;100372.31;;;2.62;100.00
59531;BME280;45349;48.692;8.186;2023-02-14T12:34:47;100374.81;;;2.88;100.00
59531;BME280;45349;48.692;8.186;2023-02-14T12:37:20;100374.34;;;3.00;100.00
59531;BME280;45349;48.692;8.186;2023-02-14T12:40:08;100366.28;;;2.86;100.00
59531;BME280;45349;48.692;8.186;2023-02-14T12:42:46;100367.28;;;3.05;100.00
59531;BME280;45349;48.692;8.186;2023-02-14T12:45:20;100358.78;;;3.24;100.00
59531;BME280;45349;48.692;8.186;2023-02-14T12:47:56;100354.53;;;3.23;99.86
59531;BME280;45349;48.692;8.186;2023-02-14T12:50:39;100353.34;;;3.09;99.29
59531;BME280;45349;48.692;8.186;2023-02-14T12:53:33;100344.75;;;3.09;100.00
59531;BME280;45349;48.692;8.186;2023-02-14T12:56:10;100345.53;;;3.11;100.00
59531;BME280;45349;48.692;8.186;2023-02-14T12:58:48;100344.31;;;3.20;100.00
59531;BME280;45349;48.692;8.186;2023-02-14T13:01:44;100340.47;;;3.30;100.00
59531;BME280;45349;48.692;8.186;2023-02-14T13:04:24;100332.25;;;3.63;98.62
59531;BME280;45349;48.692;8.186;2023-02-14T13:06:58;100322.25;;;3.56;96.60
59531;BME280;45349;48.692;8.186;2023-02-14T13:09:34;100325.09;;;3.49;97.58